Pagina principale
METAR-TAF:

METAR-TAF

Aeroporti :

Dübendorf, Svizzera

latitudine: 47-23-55N, longitudine: 8-38-53E, altezza: 448 m

Osservazione

Il bollettino è stato emesso 19 minuti fa, alle 12:50 UTC
Vento 7 kt da ovest, variando fra sud-ovest e nord-ovest
Temperature 6°C
Umidità 81%
Pressione 1009 hPa
Visibilità 10 km o più
Nubi sparse ad un'altezza di 1500 ft
Nuvoloso ad un'altezza di 5500 ft

METAR: LSMD 171250Z 27007KT 220V310 9999 SCT015 BKN055 06/03 Q1009 RMK BLU

Ora: 14:09 (13:09 UTC)


TAF: mancante

Osservazioni e previsioni meteorologiche di più di 4000 aeroporti (messaggi METAR e TAF).

Le stazioni disponibili sono rappresentate dai dischi gialli e rossi sulla carta.

Puntare il mouse per vedere il nome della stazione.

Clicca sopra per visualizzare le osservazioni e previsioni meteorologiche.

Per cambiare la mappa : fare clic sui pulsanti verdi con una croce nera per ingrandire, il pulsante verde con un trattino per diminuire, o sulla freccia verde per le mappe adiacenti.


METAR-TAF: